sensor_id;sensor_type;location;lat;lon;timestamp;P1;durP1;ratioP1;P2;durP2;ratioP2
53245;SDS011;39569;51.090;-1.786;2023-05-19T00:01:11;11.68;;;7.25;;
53245;SDS011;39569;51.090;-1.786;2023-05-19T00:03:48;8.88;;;6.22;;
53245;SDS011;39569;51.090;-1.786;2023-05-19T00:06:16;12.88;;;6.53;;
53245;SDS011;39569;51.090;-1.786;2023-05-19T00:08:49;10.07;;;6.95;;
53245;SDS011;39569;51.090;-1.786;2023-05-19T00:11:21;7.07;;;6.38;;
53245;SDS011;39569;51.090;-1.786;2023-05-19T00:13:49;13.70;;;5.95;;
53245;SDS011;39569;51.090;-1.786;2023-05-19T00:16:17;12.48;;;6.03;;
53245;SDS011;39569;51.090;-1.786;2023-05-19T00:18:44;13.48;;;6.72;;
53245;SDS011;39569;51.090;-1.786;2023-05-19T00:21:12;11.00;;;6.05;;
53245;SDS011;39569;51.090;-1.786;2023-05-19T00:23:39;19.40;;;5.93;;
53245;SDS011;39569;51.090;-1.786;2023-05-19T00:26:08;8.80;;;7.18;;
53245;SDS011;39569;51.090;-1.786;2023-05-19T00:28:35;6.85;;;6.07;;
53245;SDS011;39569;51.090;-1.786;2023-05-19T00:31:02;9.23;;;6.38;;
53245;SDS011;39569;51.090;-1.786;2023-05-19T00:33:30;9.77;;;6.55;;
53245;SDS011;39569;51.090;-1.786;2023-05-19T00:35:58;9.57;;;6.60;;
53245;SDS011;39569;51.090;-1.786;2023-05-19T00:38:26;7.68;;;5.55;;
53245;SDS011;39569;51.090;-1.786;2023-05-19T00:40:53;10.27;;;5.40;;
53245;SDS011;39569;51.090;-1.786;2023-05-19T00:43:22;11.70;;;7.10;;
53245;SDS011;39569;51.090;-1.786;2023-05-19T00:45:48;12.18;;;5.47;;
53245;SDS011;39569;51.090;-1.786;2023-05-19T00:48:16;12.45;;;6.15;;
53245;SDS011;39569;51.090;-1.786;2023-05-19T00:50:43;11.25;;;6.10;;
53245;SDS011;39569;51.090;-1.786;2023-05-19T00:53:10;16.38;;;5.35;;
53245;SDS011;39569;51.090;-1.786;2023-05-19T00:55:37;7.38;;;5.90;;
53245;SDS011;39569;51.090;-1.786;2023-05-19T00:58:06;12.82;;;5.88;;
53245;SDS011;39569;51.090;-1.786;2023-05-19T01:00:37;14.75;;;6.03;;
53245;SDS011;39569;51.090;-1.786;2023-05-19T01:03:04;10.50;;;6.10;;
53245;SDS011;39569;51.090;-1.786;2023-05-19T01:05:35;8.52;;;5.68;;
53245;SDS011;39569;51.090;-1.786;2023-05-19T01:08:03;7.47;;;5.93;;
53245;SDS011;39569;51.090;-1.786;2023-05-19T01:10:30;15.25;;;7.10;;
53245;SDS011;39569;51.090;-1.786;2023-05-19T01:12:57;7.50;;;5.53;;
53245;SDS011;39569;51.090;-1.786;2023-05-19T01:15:24;6.13;;;4.88;;
53245;SDS011;39569;51.090;-1.786;2023-05-19T01:17:55;7.70;;;6.82;;
53245;SDS011;39569;51.090;-1.786;2023-05-19T01:20:29;10.70;;;5.82;;
53245;SDS011;39569;51.090;-1.786;2023-05-19T01:31:48;5.72;;;5.13;;
53245;SDS011;39569;51.090;-1.786;2023-05-19T01:34:16;11.00;;;6.15;;
53245;SDS011;39569;51.090;-1.786;2023-05-19T01:36:44;13.57;;;6.05;;
53245;SDS011;39569;51.090;-1.786;2023-05-19T01:39:14;12.13;;;5.88;;
53245;SDS011;39569;51.090;-1.786;2023-05-19T01:41:42;7.70;;;5.97;;
53245;SDS011;39569;51.090;-1.786;2023-05-19T01:44:10;10.63;;;5.68;;
53245;SDS011;39569;51.090;-1.786;2023-05-19T01:46:37;9.75;;;6.40;;
53245;SDS011;39569;51.090;-1.786;2023-05-19T01:49:07;13.05;;;7.57;;
53245;SDS011;39569;51.090;-1.786;2023-05-19T01:51:34;8.65;;;6.13;;
53245;SDS011;39569;51.090;-1.786;2023-05-19T01:54:01;7.22;;;5.72;;
53245;SDS011;39569;51.090;-1.786;2023-05-19T01:56:30;10.30;;;6.18;;
53245;SDS011;39569;51.090;-1.786;2023-05-19T02:01:42;10.00;;;6.38;;
53245;SDS011;39569;51.090;-1.786;2023-05-19T02:04:20;15.65;;;7.20;;
53245;SDS011;39569;51.090;-1.786;2023-05-19T02:06:57;8.25;;;6.43;;
53245;SDS011;39569;51.090;-1.786;2023-05-19T02:09:32;13.02;;;6.53;;
53245;SDS011;39569;51.090;-1.786;2023-05-19T02:12:05;4.45;;;3.65;;
53245;SDS011;39569;51.090;-1.786;2023-05-19T02:14:38;14.27;;;6.82;;
53245;SDS011;39569;51.090;-1.786;2023-05-19T02:17:07;8.93;;;6.53;;
53245;SDS011;39569;51.090;-1.786;2023-05-19T02:19:37;8.70;;;6.57;;
53245;SDS011;39569;51.090;-1.786;2023-05-19T02:22:04;14.20;;;7.22;;
53245;SDS011;39569;51.090;-1.786;2023-05-19T02:24:31;14.00;;;7.55;;
53245;SDS011;39569;51.090;-1.786;2023-05-19T02:26:58;12.07;;;6.95;;
53245;SDS011;39569;51.090;-1.786;2023-05-19T02:29:25;14.18;;;7.10;;
53245;SDS011;39569;51.090;-1.786;2023-05-19T02:31:52;10.90;;;7.15;;
53245;SDS011;39569;51.090;-1.786;2023-05-19T02:34:18;16.25;;;6.68;;
53245;SDS011;39569;51.090;-1.786;2023-05-19T02:36:46;14.98;;;6.63;;
53245;SDS011;39569;51.090;-1.786;2023-05-19T02:39:14;9.57;;;7.18;;
53245;SDS011;39569;51.090;-1.786;2023-05-19T02:41:41;10.75;;;6.70;;
53245;SDS011;39569;51.090;-1.786;2023-05-19T02:44:08;20.58;;;6.95;;
53245;SDS011;39569;51.090;-1.786;2023-05-19T02:46:35;11.98;;;6.88;;
53245;SDS011;39569;51.090;-1.786;2023-05-19T02:49:01;7.38;;;6.55;;
53245;SDS011;39569;51.090;-1.786;2023-05-19T02:51:28;12.43;;;6.50;;
53245;SDS011;39569;51.090;-1.786;2023-05-19T02:53:56;10.98;;;7.15;;
53245;SDS011;39569;51.090;-1.786;2023-05-19T02:56:23;15.35;;;6.53;;
53245;SDS011;39569;51.090;-1.786;2023-05-19T02:58:50;16.48;;;6.80;;
53245;SDS011;39569;51.090;-1.786;2023-05-19T03:01:17;12.95;;;7.50;;
53245;SDS011;39569;51.090;-1.786;2023-05-19T03:03:45;13.82;;;7.85;;
53245;SDS011;39569;51.090;-1.786;2023-05-19T03:06:12;9.52;;;7.05;;
53245;SDS011;39569;51.090;-1.786;2023-05-19T03:08:39;13.48;;;8.18;;
53245;SDS011;39569;51.090;-1.786;2023-05-19T03:11:07;10.93;;;7.38;;
53245;SDS011;39569;51.090;-1.786;2023-05-19T03:13:34;10.38;;;7.65;;
53245;SDS011;39569;51.090;-1.786;2023-05-19T03:16:01;10.93;;;7.60;;
53245;SDS011;39569;51.090;-1.786;2023-05-19T03:18:28;11.88;;;8.55;;
53245;SDS011;39569;51.090;-1.786;2023-05-19T03:20:55;8.07;;;7.28;;
53245;SDS011;39569;51.090;-1.786;2023-05-19T03:23:21;9.15;;;7.78;;
53245;SDS011;39569;51.090;-1.786;2023-05-19T03:25:48;13.05;;;6.65;;
53245;SDS011;39569;51.090;-1.786;2023-05-19T03:28:17;6.35;;;5.82;;
53245;SDS011;39569;51.090;-1.786;2023-05-19T03:30:43;15.65;;;8.48;;
53245;SDS011;39569;51.090;-1.786;2023-05-19T03:33:10;17.05;;;8.35;;
53245;SDS011;39569;51.090;-1.786;2023-05-19T03:35:37;7.90;;;6.97;;
53245;SDS011;39569;51.090;-1.786;2023-05-19T03:38:04;16.02;;;8.50;;
53245;SDS011;39569;51.090;-1.786;2023-05-19T03:40:30;17.83;;;7.68;;
53245;SDS011;39569;51.090;-1.786;2023-05-19T03:42:57;13.82;;;7.25;;
53245;SDS011;39569;51.090;-1.786;2023-05-19T03:45:26;8.35;;;7.53;;
53245;SDS011;39569;51.090;-1.786;2023-05-19T03:47:53;7.63;;;6.47;;
53245;SDS011;39569;51.090;-1.786;2023-05-19T03:50:21;9.50;;;7.03;;
53245;SDS011;39569;51.090;-1.786;2023-05-19T03:52:48;7.90;;;7.18;;
53245;SDS011;39569;51.090;-1.786;2023-05-19T03:55:15;11.80;;;8.80;;
53245;SDS011;39569;51.090;-1.786;2023-05-19T03:57:44;8.75;;;7.93;;
53245;SDS011;39569;51.090;-1.786;2023-05-19T04:00:11;13.82;;;9.50;;
53245;SDS011;39569;51.090;-1.786;2023-05-19T04:02:40;9.15;;;7.47;;
53245;SDS011;39569;51.090;-1.786;2023-05-19T04:05:07;21.50;;;8.35;;
53245;SDS011;39569;51.090;-1.786;2023-05-19T04:07:34;12.43;;;7.18;;
53245;SDS011;39569;51.090;-1.786;2023-05-19T04:10:02;9.50;;;8.52;;
53245;SDS011;39569;51.090;-1.786;2023-05-19T04:12:29;12.73;;;8.65;;
53245;SDS011;39569;51.090;-1.786;2023-05-19T04:14:57;7.53;;;6.78;;
53245;SDS011;39569;51.090;-1.786;2023-05-19T04:17:23;14.18;;;7.00;;
53245;SDS011;39569;51.090;-1.786;2023-05-19T04:19:52;14.30;;;8.55;;
53245;SDS011;39569;51.090;-1.786;2023-05-19T04:22:19;8.75;;;7.85;;
53245;SDS011;39569;51.090;-1.786;2023-05-19T04:24:46;13.18;;;7.80;;
53245;SDS011;39569;51.090;-1.786;2023-05-19T04:27:14;9.27;;;7.85;;
53245;SDS011;39569;51.090;-1.786;2023-05-19T04:29:42;10.65;;;9.30;;
53245;SDS011;39569;51.090;-1.786;2023-05-19T04:32:10;13.35;;;8.80;;
53245;SDS011;39569;51.090;-1.786;2023-05-19T04:34:41;14.35;;;8.45;;
53245;SDS011;39569;51.090;-1.786;2023-05-19T04:37:11;18.48;;;7.53;;
53245;SDS011;39569;51.090;-1.786;2023-05-19T04:39:38;13.30;;;8.55;;
53245;SDS011;39569;51.090;-1.786;2023-05-19T04:42:07;11.98;;;8.65;;
53245;SDS011;39569;51.090;-1.786;2023-05-19T04:44:34;10.15;;;8.48;;
53245;SDS011;39569;51.090;-1.786;2023-05-19T04:47:02;13.35;;;8.82;;
53245;SDS011;39569;51.090;-1.786;2023-05-19T04:49:30;13.77;;;7.78;;
53245;SDS011;39569;51.090;-1.786;2023-05-19T04:51:57;16.40;;;7.75;;
53245;SDS011;39569;51.090;-1.786;2023-05-19T04:54:25;14.07;;;8.75;;
53245;SDS011;39569;51.090;-1.786;2023-05-19T04:56:51;10.30;;;9.15;;
53245;SDS011;39569;51.090;-1.786;2023-05-19T04:59:18;12.88;;;8.23;;
53245;SDS011;39569;51.090;-1.786;2023-05-19T05:01:45;14.20;;;10.63;;
53245;SDS011;39569;51.090;-1.786;2023-05-19T05:04:12;10.68;;;9.48;;
53245;SDS011;39569;51.090;-1.786;2023-05-19T05:06:38;11.82;;;9.80;;
53245;SDS011;39569;51.090;-1.786;2023-05-19T05:09:06;14.68;;;9.90;;
53245;SDS011;39569;51.090;-1.786;2023-05-19T05:11:36;11.63;;;9.50;;
53245;SDS011;39569;51.090;-1.786;2023-05-19T05:14:03;18.60;;;11.23;;
53245;SDS011;39569;51.090;-1.786;2023-05-19T05:16:30;20.77;;;10.30;;
53245;SDS011;39569;51.090;-1.786;2023-05-19T05:18:58;15.40;;;9.98;;
53245;SDS011;39569;51.090;-1.786;2023-05-19T05:21:26;10.57;;;9.13;;
53245;SDS011;39569;51.090;-1.786;2023-05-19T05:23:53;16.77;;;8.77;;
53245;SDS011;39569;51.090;-1.786;2023-05-19T05:26:20;9.35;;;7.88;;
53245;SDS011;39569;51.090;-1.786;2023-05-19T05:28:49;10.25;;;9.15;;
53245;SDS011;39569;51.090;-1.786;2023-05-19T05:31:16;10.38;;;9.30;;
53245;SDS011;39569;51.090;-1.786;2023-05-19T05:33:43;10.52;;;8.10;;
53245;SDS011;39569;51.090;-1.786;2023-05-19T05:36:10;12.43;;;8.20;;
53245;SDS011;39569;51.090;-1.786;2023-05-19T05:38:37;14.02;;;11.00;;
53245;SDS011;39569;51.090;-1.786;2023-05-19T05:41:04;11.93;;;9.88;;
53245;SDS011;39569;51.090;-1.786;2023-05-19T05:43:31;15.40;;;9.70;;
53245;SDS011;39569;51.090;-1.786;2023-05-19T05:45:59;17.15;;;11.98;;
53245;SDS011;39569;51.090;-1.786;2023-05-19T05:48:26;16.88;;;11.50;;
53245;SDS011;39569;51.090;-1.786;2023-05-19T05:50:53;12.32;;;11.00;;
53245;SDS011;39569;51.090;-1.786;2023-05-19T05:53:22;16.02;;;10.13;;
53245;SDS011;39569;51.090;-1.786;2023-05-19T05:55:50;24.48;;;13.30;;
53245;SDS011;39569;51.090;-1.786;2023-05-19T05:58:18;19.42;;;12.57;;
53245;SDS011;39569;51.090;-1.786;2023-05-19T06:00:45;15.23;;;12.85;;
53245;SDS011;39569;51.090;-1.786;2023-05-19T06:03:14;14.95;;;11.02;;
53245;SDS011;39569;51.090;-1.786;2023-05-19T06:05:41;16.40;;;12.27;;
53245;SDS011;39569;51.090;-1.786;2023-05-19T06:08:08;13.15;;;11.82;;
53245;SDS011;39569;51.090;-1.786;2023-05-19T06:10:35;14.20;;;11.57;;
53245;SDS011;39569;51.090;-1.786;2023-05-19T06:13:03;18.25;;;11.88;;
53245;SDS011;39569;51.090;-1.786;2023-05-19T06:15:29;25.02;;;13.75;;
53245;SDS011;39569;51.090;-1.786;2023-05-19T06:17:56;23.52;;;14.60;;
53245;SDS011;39569;51.090;-1.786;2023-05-19T06:20:24;17.63;;;12.15;;
53245;SDS011;39569;51.090;-1.786;2023-05-19T06:22:51;17.33;;;11.52;;
53245;SDS011;39569;51.090;-1.786;2023-05-19T06:25:18;16.40;;;11.77;;
53245;SDS011;39569;51.090;-1.786;2023-05-19T06:27:45;17.95;;;11.98;;
53245;SDS011;39569;51.090;-1.786;2023-05-19T06:30:12;14.55;;;11.27;;
53245;SDS011;39569;51.090;-1.786;2023-05-19T06:32:39;17.98;;;11.95;;
53245;SDS011;39569;51.090;-1.786;2023-05-19T06:35:06;12.45;;;11.15;;
53245;SDS011;39569;51.090;-1.786;2023-05-19T06:37:35;17.13;;;11.68;;
53245;SDS011;39569;51.090;-1.786;2023-05-19T06:40:02;13.82;;;12.38;;
53245;SDS011;39569;51.090;-1.786;2023-05-19T06:42:29;12.95;;;11.63;;
53245;SDS011;39569;51.090;-1.786;2023-05-19T06:44:56;19.92;;;12.85;;
53245;SDS011;39569;51.090;-1.786;2023-05-19T06:47:23;23.27;;;13.65;;
53245;SDS011;39569;51.090;-1.786;2023-05-19T06:49:50;19.17;;;12.75;;
53245;SDS011;39569;51.090;-1.786;2023-05-19T06:52:19;14.13;;;12.25;;
53245;SDS011;39569;51.090;-1.786;2023-05-19T06:54:47;15.63;;;12.75;;
53245;SDS011;39569;51.090;-1.786;2023-05-19T06:57:14;14.18;;;12.70;;
53245;SDS011;39569;51.090;-1.786;2023-05-19T06:59:41;19.85;;;12.85;;
53245;SDS011;39569;51.090;-1.786;2023-05-19T07:02:10;21.02;;;13.75;;
53245;SDS011;39569;51.090;-1.786;2023-05-19T07:04:37;18.13;;;12.95;;
53245;SDS011;39569;51.090;-1.786;2023-05-19T07:07:05;14.45;;;13.20;;
53245;SDS011;39569;51.090;-1.786;2023-05-19T07:09:32;14.95;;;13.18;;
53245;SDS011;39569;51.090;-1.786;2023-05-19T07:12:00;15.85;;;14.18;;
53245;SDS011;39569;51.090;-1.786;2023-05-19T07:14:27;17.13;;;14.60;;
53245;SDS011;39569;51.090;-1.786;2023-05-19T07:16:53;18.35;;;13.85;;
53245;SDS011;39569;51.090;-1.786;2023-05-19T07:19:20;18.08;;;13.35;;
53245;SDS011;39569;51.090;-1.786;2023-05-19T07:21:48;15.13;;;13.20;;
53245;SDS011;39569;51.090;-1.786;2023-05-19T07:24:14;22.17;;;16.10;;
53245;SDS011;39569;51.090;-1.786;2023-05-19T07:26:41;16.20;;;13.05;;
53245;SDS011;39569;51.090;-1.786;2023-05-19T07:29:09;17.17;;;14.75;;
53245;SDS011;39569;51.090;-1.786;2023-05-19T07:31:36;20.80;;;16.25;;
53245;SDS011;39569;51.090;-1.786;2023-05-19T07:34:03;21.60;;;13.75;;
53245;SDS011;39569;51.090;-1.786;2023-05-19T07:36:30;18.25;;;14.43;;
53245;SDS011;39569;51.090;-1.786;2023-05-19T07:38:56;16.92;;;13.73;;
53245;SDS011;39569;51.090;-1.786;2023-05-19T07:41:23;27.08;;;14.43;;
53245;SDS011;39569;51.090;-1.786;2023-05-19T07:43:50;19.75;;;14.48;;
53245;SDS011;39569;51.090;-1.786;2023-05-19T07:46:19;17.83;;;14.65;;
53245;SDS011;39569;51.090;-1.786;2023-05-19T07:48:46;20.17;;;16.20;;
53245;SDS011;39569;51.090;-1.786;2023-05-19T07:51:12;19.30;;;16.35;;
53245;SDS011;39569;51.090;-1.786;2023-05-19T07:53:40;21.10;;;16.75;;
53245;SDS011;39569;51.090;-1.786;2023-05-19T07:56:07;18.50;;;15.15;;
53245;SDS011;39569;51.090;-1.786;2023-05-19T07:58:33;21.17;;;15.35;;
53245;SDS011;39569;51.090;-1.786;2023-05-19T08:01:00;19.25;;;16.45;;
53245;SDS011;39569;51.090;-1.786;2023-05-19T08:03:28;16.48;;;14.73;;
53245;SDS011;39569;51.090;-1.786;2023-05-19T08:05:55;17.73;;;15.13;;
53245;SDS011;39569;51.090;-1.786;2023-05-19T08:08:22;20.05;;;15.35;;
53245;SDS011;39569;51.090;-1.786;2023-05-19T08:10:49;17.08;;;15.38;;
53245;SDS011;39569;51.090;-1.786;2023-05-19T08:13:17;17.92;;;15.38;;
53245;SDS011;39569;51.090;-1.786;2023-05-19T08:15:44;17.95;;;16.33;;
53245;SDS011;39569;51.090;-1.786;2023-05-19T08:18:11;16.73;;;14.98;;
53245;SDS011;39569;51.090;-1.786;2023-05-19T08:20:39;24.48;;;14.48;;
53245;SDS011;39569;51.090;-1.786;2023-05-19T08:23:05;19.08;;;16.88;;
53245;SDS011;39569;51.090;-1.786;2023-05-19T08:25:32;19.58;;;15.88;;
53245;SDS011;39569;51.090;-1.786;2023-05-19T08:27:59;35.00;;;18.10;;
53245;SDS011;39569;51.090;-1.786;2023-05-19T08:30:25;33.35;;;18.35;;
53245;SDS011;39569;51.090;-1.786;2023-05-19T08:32:52;26.92;;;18.45;;
53245;SDS011;39569;51.090;-1.786;2023-05-19T08:35:19;23.23;;;14.32;;
53245;SDS011;39569;51.090;-1.786;2023-05-19T08:37:47;34.90;;;15.85;;
53245;SDS011;39569;51.090;-1.786;2023-05-19T08:40:15;16.25;;;14.00;;
53245;SDS011;39569;51.090;-1.786;2023-05-19T08:42:43;20.58;;;13.98;;
53245;SDS011;39569;51.090;-1.786;2023-05-19T08:45:10;15.18;;;13.68;;
53245;SDS011;39569;51.090;-1.786;2023-05-19T08:47:37;26.30;;;13.95;;
53245;SDS011;39569;51.090;-1.786;2023-05-19T08:50:05;15.00;;;13.43;;
53245;SDS011;39569;51.090;-1.786;2023-05-19T08:52:37;14.45;;;12.90;;
53245;SDS011;39569;51.090;-1.786;2023-05-19T08:55:14;21.77;;;13.27;;
53245;SDS011;39569;51.090;-1.786;2023-05-19T08:57:50;14.70;;;13.43;;
53245;SDS011;39569;51.090;-1.786;2023-05-19T09:00:17;15.35;;;13.95;;
53245;SDS011;39569;51.090;-1.786;2023-05-19T09:02:44;24.67;;;14.68;;
53245;SDS011;39569;51.090;-1.786;2023-05-19T09:05:14;16.35;;;12.45;;
53245;SDS011;39569;51.090;-1.786;2023-05-19T09:07:42;21.00;;;13.90;;
53245;SDS011;39569;51.090;-1.786;2023-05-19T09:10:09;16.88;;;14.05;;
53245;SDS011;39569;51.090;-1.786;2023-05-19T09:12:39;14.48;;;13.13;;
53245;SDS011;39569;51.090;-1.786;2023-05-19T09:15:09;23.20;;;14.15;;
53245;SDS011;39569;51.090;-1.786;2023-05-19T09:17:37;20.40;;;14.30;;
53245;SDS011;39569;51.090;-1.786;2023-05-19T09:20:05;15.93;;;13.95;;
53245;SDS011;39569;51.090;-1.786;2023-05-19T09:22:38;22.73;;;15.07;;
53245;SDS011;39569;51.090;-1.786;2023-05-19T09:25:16;18.13;;;14.20;;
53245;SDS011;39569;51.090;-1.786;2023-05-19T09:27:44;14.48;;;12.88;;
53245;SDS011;39569;51.090;-1.786;2023-05-19T09:30:12;14.65;;;13.15;;
53245;SDS011;39569;51.090;-1.786;2023-05-19T09:32:40;17.30;;;14.15;;
53245;SDS011;39569;51.090;-1.786;2023-05-19T09:35:07;23.02;;;14.05;;
53245;SDS011;39569;51.090;-1.786;2023-05-19T09:37:34;17.00;;;14.57;;
53245;SDS011;39569;51.090;-1.786;2023-05-19T09:40:04;14.20;;;12.90;;
53245;SDS011;39569;51.090;-1.786;2023-05-19T09:42:33;17.00;;;14.30;;
53245;SDS011;39569;51.090;-1.786;2023-05-19T09:45:04;17.58;;;15.73;;
53245;SDS011;39569;51.090;-1.786;2023-05-19T09:47:33;19.00;;;14.27;;
53245;SDS011;39569;51.090;-1.786;2023-05-19T09:50:00;16.65;;;12.90;;
53245;SDS011;39569;51.090;-1.786;2023-05-19T09:52:27;15.38;;;13.77;;
53245;SDS011;39569;51.090;-1.786;2023-05-19T09:54:55;27.67;;;13.98;;
53245;SDS011;39569;51.090;-1.786;2023-05-19T09:57:24;20.90;;;13.95;;
53245;SDS011;39569;51.090;-1.786;2023-05-19T09:59:53;18.48;;;14.00;;
53245;SDS011;39569;51.090;-1.786;2023-05-19T10:02:23;17.75;;;12.68;;
53245;SDS011;39569;51.090;-1.786;2023-05-19T10:04:51;13.20;;;11.98;;
53245;SDS011;39569;51.090;-1.786;2023-05-19T10:07:19;21.73;;;14.00;;
53245;SDS011;39569;51.090;-1.786;2023-05-19T10:09:48;20.48;;;13.55;;
53245;SDS011;39569;51.090;-1.786;2023-05-19T10:12:16;15.15;;;12.40;;
53245;SDS011;39569;51.090;-1.786;2023-05-19T10:14:43;13.48;;;11.82;;
53245;SDS011;39569;51.090;-1.786;2023-05-19T10:17:11;16.23;;;12.20;;
53245;SDS011;39569;51.090;-1.786;2023-05-19T10:19:40;16.92;;;12.45;;
53245;SDS011;39569;51.090;-1.786;2023-05-19T10:22:08;12.07;;;10.70;;
53245;SDS011;39569;51.090;-1.786;2023-05-19T10:24:35;14.52;;;11.82;;
53245;SDS011;39569;51.090;-1.786;2023-05-19T10:27:04;15.00;;;13.23;;
53245;SDS011;39569;51.090;-1.786;2023-05-19T10:29:35;11.45;;;10.32;;
53245;SDS011;39569;51.090;-1.786;2023-05-19T10:32:06;14.85;;;11.60;;
53245;SDS011;39569;51.090;-1.786;2023-05-19T10:34:47;14.07;;;12.32;;
53245;SDS011;39569;51.090;-1.786;2023-05-19T10:37:33;16.15;;;10.73;;
53245;SDS011;39569;51.090;-1.786;2023-05-19T10:40:10;16.27;;;12.02;;
53245;SDS011;39569;51.090;-1.786;2023-05-19T10:42:46;15.65;;;12.25;;
53245;SDS011;39569;51.090;-1.786;2023-05-19T10:45:26;12.82;;;11.52;;
53245;SDS011;39569;51.090;-1.786;2023-05-19T10:47:55;15.02;;;12.02;;
53245;SDS011;39569;51.090;-1.786;2023-05-19T10:50:23;11.05;;;9.88;;
53245;SDS011;39569;51.090;-1.786;2023-05-19T10:52:52;15.13;;;11.82;;
53245;SDS011;39569;51.090;-1.786;2023-05-19T10:58:11;13.23;;;11.82;;
53245;SDS011;39569;51.090;-1.786;2023-05-19T11:00:38;28.73;;;13.93;;
53245;SDS011;39569;51.090;-1.786;2023-05-19T11:03:12;21.45;;;12.48;;
53245;SDS011;39569;51.090;-1.786;2023-05-19T11:05:40;20.85;;;11.82;;
53245;SDS011;39569;51.090;-1.786;2023-05-19T11:08:10;17.73;;;12.93;;
53245;SDS011;39569;51.090;-1.786;2023-05-19T11:10:37;17.45;;;11.60;;
53245;SDS011;39569;51.090;-1.786;2023-05-19T11:13:04;16.02;;;12.32;;
53245;SDS011;39569;51.090;-1.786;2023-05-19T11:15:33;15.35;;;12.13;;
53245;SDS011;39569;51.090;-1.786;2023-05-19T11:18:00;20.73;;;13.48;;
53245;SDS011;39569;51.090;-1.786;2023-05-19T11:20:28;14.18;;;12.30;;
53245;SDS011;39569;51.090;-1.786;2023-05-19T11:23:07;15.85;;;12.82;;
53245;SDS011;39569;51.090;-1.786;2023-05-19T11:25:41;13.82;;;12.43;;
53245;SDS011;39569;51.090;-1.786;2023-05-19T11:28:09;18.13;;;12.45;;
53245;SDS011;39569;51.090;-1.786;2023-05-19T11:30:39;14.98;;;11.48;;
53245;SDS011;39569;51.090;-1.786;2023-05-19T11:33:07;18.85;;;13.48;;
53245;SDS011;39569;51.090;-1.786;2023-05-19T11:35:34;13.43;;;12.02;;
53245;SDS011;39569;51.090;-1.786;2023-05-19T11:38:01;17.33;;;12.43;;
53245;SDS011;39569;51.090;-1.786;2023-05-19T11:40:30;17.13;;;15.35;;
53245;SDS011;39569;51.090;-1.786;2023-05-19T11:42:57;28.30;;;14.90;;
53245;SDS011;39569;51.090;-1.786;2023-05-19T11:45:26;23.75;;;14.38;;
53245;SDS011;39569;51.090;-1.786;2023-05-19T11:47:53;20.60;;;13.48;;
53245;SDS011;39569;51.090;-1.786;2023-05-19T11:50:21;16.63;;;14.70;;
53245;SDS011;39569;51.090;-1.786;2023-05-19T11:52:49;21.30;;;12.68;;
53245;SDS011;39569;51.090;-1.786;2023-05-19T11:55:16;14.15;;;12.55;;
53245;SDS011;39569;51.090;-1.786;2023-05-19T11:57:50;16.88;;;14.63;;
53245;SDS011;39569;51.090;-1.786;2023-05-19T12:00:23;23.35;;;15.48;;
53245;SDS011;39569;51.090;-1.786;2023-05-19T12:02:50;31.40;;;15.00;;
53245;SDS011;39569;51.090;-1.786;2023-05-19T12:05:17;18.83;;;15.25;;
53245;SDS011;39569;51.090;-1.786;2023-05-19T12:07:45;19.20;;;14.23;;
53245;SDS011;39569;51.090;-1.786;2023-05-19T12:10:13;21.45;;;14.60;;
53245;SDS011;39569;51.090;-1.786;2023-05-19T12:12:41;18.15;;;14.65;;
53245;SDS011;39569;51.090;-1.786;2023-05-19T12:15:10;17.90;;;15.15;;
53245;SDS011;39569;51.090;-1.786;2023-05-19T12:17:37;18.20;;;14.60;;
53245;SDS011;39569;51.090;-1.786;2023-05-19T12:20:04;14.15;;;12.65;;
53245;SDS011;39569;51.090;-1.786;2023-05-19T12:22:32;28.90;;;14.73;;
53245;SDS011;39569;51.090;-1.786;2023-05-19T12:24:59;15.65;;;13.57;;
53245;SDS011;39569;51.090;-1.786;2023-05-19T12:27:28;19.30;;;12.05;;
53245;SDS011;39569;51.090;-1.786;2023-05-19T12:29:55;23.08;;;12.73;;
53245;SDS011;39569;51.090;-1.786;2023-05-19T12:32:24;16.42;;;14.73;;
53245;SDS011;39569;51.090;-1.786;2023-05-19T12:34:51;14.30;;;12.68;;
53245;SDS011;39569;51.090;-1.786;2023-05-19T12:37:18;19.88;;;13.48;;
53245;SDS011;39569;51.090;-1.786;2023-05-19T12:39:46;15.18;;;13.23;;
53245;SDS011;39569;51.090;-1.786;2023-05-19T12:42:14;25.02;;;14.70;;
53245;SDS011;39569;51.090;-1.786;2023-05-19T12:44:41;20.02;;;13.48;;
53245;SDS011;39569;51.090;-1.786;2023-05-19T12:47:10;18.38;;;13.02;;
53245;SDS011;39569;51.090;-1.786;2023-05-19T12:49:53;16.38;;;12.82;;
53245;SDS011;39569;51.090;-1.786;2023-05-19T12:52:21;40.38;;;13.45;;
53245;SDS011;39569;51.090;-1.786;2023-05-19T12:54:48;15.38;;;13.30;;
53245;SDS011;39569;51.090;-1.786;2023-05-19T12:57:16;14.85;;;13.35;;
53245;SDS011;39569;51.090;-1.786;2023-05-19T12:59:43;21.60;;;14.27;;
53245;SDS011;39569;51.090;-1.786;2023-05-19T13:02:11;24.60;;;13.52;;
53245;SDS011;39569;51.090;-1.786;2023-05-19T13:04:39;18.00;;;14.35;;
53245;SDS011;39569;51.090;-1.786;2023-05-19T13:07:07;16.63;;;14.50;;
53245;SDS011;39569;51.090;-1.786;2023-05-19T13:09:34;17.02;;;15.18;;
53245;SDS011;39569;51.090;-1.786;2023-05-19T13:12:02;17.85;;;16.13;;
53245;SDS011;39569;51.090;-1.786;2023-05-19T13:14:29;25.38;;;16.33;;
53245;SDS011;39569;51.090;-1.786;2023-05-19T13:16:56;17.88;;;15.70;;
53245;SDS011;39569;51.090;-1.786;2023-05-19T13:19:23;19.58;;;17.48;;
53245;SDS011;39569;51.090;-1.786;2023-05-19T13:21:49;19.85;;;17.50;;
53245;SDS011;39569;51.090;-1.786;2023-05-19T13:24:17;20.63;;;17.60;;
53245;SDS011;39569;51.090;-1.786;2023-05-19T13:26:44;17.80;;;15.80;;
53245;SDS011;39569;51.090;-1.786;2023-05-19T13:29:12;20.67;;;18.30;;
53245;SDS011;39569;51.090;-1.786;2023-05-19T13:31:39;20.13;;;18.02;;
53245;SDS011;39569;51.090;-1.786;2023-05-19T13:34:05;20.83;;;18.63;;
53245;SDS011;39569;51.090;-1.786;2023-05-19T13:36:32;25.60;;;20.20;;
53245;SDS011;39569;51.090;-1.786;2023-05-19T13:39:00;29.98;;;19.88;;
53245;SDS011;39569;51.090;-1.786;2023-05-19T13:41:28;29.33;;;19.30;;
53245;SDS011;39569;51.090;-1.786;2023-05-19T13:43:56;28.17;;;19.67;;
53245;SDS011;39569;51.090;-1.786;2023-05-19T13:46:23;23.48;;;20.00;;
53245;SDS011;39569;51.090;-1.786;2023-05-19T13:48:50;21.75;;;19.38;;
53245;SDS011;39569;51.090;-1.786;2023-05-19T13:51:17;19.33;;;17.38;;
53245;SDS011;39569;51.090;-1.786;2023-05-19T13:53:44;32.40;;;22.13;;
53245;SDS011;39569;51.090;-1.786;2023-05-19T13:56:10;21.63;;;19.48;;
53245;SDS011;39569;51.090;-1.786;2023-05-19T13:58:39;25.35;;;18.38;;
53245;SDS011;39569;51.090;-1.786;2023-05-19T14:01:05;19.98;;;16.90;;
53245;SDS011;39569;51.090;-1.786;2023-05-19T14:03:33;17.90;;;16.05;;
53245;SDS011;39569;51.090;-1.786;2023-05-19T14:06:01;19.35;;;16.52;;
53245;SDS011;39569;51.090;-1.786;2023-05-19T14:08:28;20.30;;;17.73;;
53245;SDS011;39569;51.090;-1.786;2023-05-19T14:10:54;21.02;;;15.95;;
53245;SDS011;39569;51.090;-1.786;2023-05-19T14:13:21;23.85;;;15.13;;
53245;SDS011;39569;51.090;-1.786;2023-05-19T14:15:50;19.55;;;14.50;;
53245;SDS011;39569;51.090;-1.786;2023-05-19T14:18:16;17.90;;;14.38;;
53245;SDS011;39569;51.090;-1.786;2023-05-19T14:20:43;23.67;;;15.43;;
53245;SDS011;39569;51.090;-1.786;2023-05-19T14:23:10;20.45;;;16.10;;
53245;SDS011;39569;51.090;-1.786;2023-05-19T14:25:36;21.58;;;17.23;;
53245;SDS011;39569;51.090;-1.786;2023-05-19T14:28:03;23.20;;;16.42;;
53245;SDS011;39569;51.090;-1.786;2023-05-19T14:30:30;26.92;;;16.08;;
53245;SDS011;39569;51.090;-1.786;2023-05-19T14:32:58;19.23;;;16.08;;
53245;SDS011;39569;51.090;-1.786;2023-05-19T14:35:25;19.52;;;16.77;;